Time;durP1;ratioP1;P1;durP2;ratioP2;P2;SDS_P1;SDS_P2;PMS_P1;PMS_P2;Temp;Humidity;BMP_temperature;BMP_pressure;BME280_temperature;BME280_humidity;BME280_pressure;Samples;Min_cycle;Max_cycle;Signal;HPM_P1;HPM_P2
2022/04/18 00:02:02;;;;;;;3.00;1.90;;;8.60;86.00;;;;;;5014384;28;20065;-53
2022/04/18 00:04:28;;;;;;;5.00;2.08;;;8.60;86.00;;;;;;5014195;28;20053;-53
2022/04/18 00:06:53;;;;;;;4.10;2.10;;;8.50;86.20;;;;;;5013954;28;20543;-52
2022/04/18 00:09:19;;;;;;;4.07;2.10;;;8.50;91.40;;;;;;5013880;28;20026;-52
2022/04/18 00:11:45;;;;;;;5.43;2.33;;;8.50;91.10;;;;;;5013755;28;20042;-51
2022/04/18 00:14:11;;;;;;;3.28;1.60;;;8.50;90.60;;;;;;5013941;28;20068;-51
2022/04/18 00:16:37;;;;;;;5.03;1.83;;;8.40;90.80;;;;;;5013912;28;20038;-53
2022/04/18 00:19:02;;;;;;;4.07;1.88;;;8.30;90.70;;;;;;5012451;28;20148;-50
2022/04/18 00:21:28;;;;;;;4.28;2.20;;;8.20;90.70;;;;;;5013783;28;20029;-52
2022/04/18 00:23:54;;;;;;;4.82;2.30;;;7.90;91.00;;;;;;5011249;28;20060;-53
2022/04/18 00:26:20;;;;;;;4.88;2.47;;;;;;;;;;5013925;28;20030;-51
2022/04/18 00:28:46;;;;;;;3.28;1.92;;;;;;;;;;5013941;28;20033;-51
2022/04/18 00:31:12;;;;;;;3.72;2.17;;;;;;;;;;5018804;28;20631;-54
2022/04/18 00:33:39;;;;;;;3.58;2.10;;;7.40;99.90;;;;;;5033907;28;20032;-50
2022/04/18 00:36:04;;;;;;;3.22;2.22;;;7.30;88.60;;;;;;5033542;28;20029;-51
2022/04/18 00:38:30;;;;;;;2.22;1.70;;;7.40;89.00;;;;;;5031301;28;20033;-53
2022/04/18 00:40:57;;;;;;;3.33;2.00;;;7.60;88.20;;;;;;5031447;28;20116;-50
2022/04/18 00:43:39;;;;;;;3.20;2.03;;;7.70;88.10;;;;;;5031658;28;20069;-51
2022/04/18 00:46:06;;;;;;;5.30;2.15;;;7.80;88.00;;;;;;5033239;28;20037;-53
2022/04/18 00:48:32;;;;;;;3.38;2.00;;;7.70;88.10;;;;;;5033363;28;20017;-52
2022/04/18 00:50:58;;;;;;;4.10;2.05;;;7.70;88.40;;;;;;5033037;28;20040;-52
2022/04/18 00:53:24;;;;;;;4.75;2.65;;;7.80;88.40;;;;;;5031488;28;20057;-53
2022/04/18 00:55:49;;;;;;;4.15;1.98;;;7.90;88.00;;;;;;5033106;28;20385;-50
2022/04/18 00:58:15;;;;;;;3.50;2.00;;;7.90;88.30;;;;;;5031226;28;20486;-52
2022/04/18 01:00:41;;;;;;;4.93;2.35;;;7.90;88.30;;;;;;5033319;28;20124;-50
2022/04/18 01:03:07;;;;;;;4.32;2.35;;;7.90;88.80;;;;;;5014715;28;20133;-52
2022/04/18 01:05:33;;;;;;;3.75;2.40;;;7.70;88.70;;;;;;5033091;28;20034;-50
2022/04/18 01:07:59;;;;;;;14.18;3.38;;;7.70;89.10;;;;;;5047826;28;20113;-53
2022/04/18 01:10:25;;;;;;;4.78;2.55;;;7.80;89.10;;;;;;5033110;28;20112;-53
2022/04/18 01:12:50;;;;;;;3.03;2.15;;;7.80;89.20;;;;;;5031238;28;20040;-53
2022/04/18 01:15:16;;;;;;;7.88;2.97;;;7.90;89.30;;;;;;5033198;28;20033;-50
2022/04/18 01:17:42;;;;;;;7.20;3.25;;;7.70;89.70;;;;;;5030826;28;20509;-50
2022/04/18 01:20:08;;;;;;;5.15;2.33;;;7.70;89.90;;;;;;5033203;28;20505;-53
2022/04/18 01:22:36;;;;;;;5.55;2.67;;;7.70;90.10;;;;;;5030928;28;20076;-51
2022/04/18 01:30:30;;;;;;;6.90;3.22;;;7.70;89.90;;;;;;5032792;28;20079;-50
2022/04/18 01:32:56;;;;;;;4.60;2.30;;;7.70;90.20;;;;;;5030799;28;20037;-53
2022/04/18 01:35:22;;;;;;;3.55;2.10;;;7.50;90.30;;;;;;5033206;28;20452;-51
2022/04/18 01:37:48;;;;;;;4.28;2.35;;;7.50;90.30;;;;;;5036379;28;20148;-51
2022/04/18 01:40:13;;;;;;;5.45;2.38;;;7.60;90.40;;;;;;5036450;28;20025;-53
2022/04/18 01:42:39;;;;;;;2.65;1.77;;;7.60;90.30;;;;;;5036537;28;20022;-50
2022/04/18 01:45:06;;;;;;;4.07;2.30;;;7.60;90.20;;;;;;5036315;28;20021;-52
2022/04/18 01:47:32;;;;;;;4.93;2.10;;;7.60;90.20;;;;;;5017985;28;20123;-54
2022/04/18 01:49:57;;;;;;;5.68;2.55;;;7.50;90.20;;;;;;5036581;28;20069;-51
2022/04/18 01:52:23;;;;;;;3.65;2.60;;;7.50;90.40;;;;;;5036484;28;20025;-53
2022/04/18 01:54:49;;;;;;;4.65;2.28;;;7.30;90.60;;;;;;5036319;28;20428;-50
2022/04/18 01:57:15;;;;;;;3.50;2.20;;;7.30;90.50;;;;;;5036083;28;20025;-49
2022/04/18 01:59:42;;;;;;;3.22;2.28;;;7.30;90.60;;;;;;5036414;28;20042;-53
2022/04/18 02:02:08;;;;;;;3.88;2.08;;;7.30;90.50;;;;;;5036285;28;20038;-50
2022/04/18 02:04:34;;;;;;;4.30;2.03;;;7.30;90.60;;;;;;5036050;28;20052;-52
2022/04/18 02:07:00;;;;;;;5.35;2.45;;;7.30;90.50;;;;;;5034269;28;20060;-52
2022/04/18 02:09:26;;;;;;;3.42;2.30;;;7.30;90.50;;;;;;5034130;28;20041;-50
2022/04/18 02:11:51;;;;;;;7.03;2.00;;;7.40;90.50;;;;;;5036116;28;20037;-52
2022/04/18 02:14:17;;;;;;;2.95;2.15;;;7.30;90.60;;;;;;5036033;28;20390;-50
2022/04/18 02:16:43;;;;;;;3.15;2.42;;;7.20;91.00;;;;;;5033693;28;20041;-52
2022/04/18 02:19:09;;;;;;;3.95;2.40;;;7.30;90.70;;;;;;5035554;28;20045;-49
2022/04/18 02:21:35;;;;;;;5.50;2.60;;;7.30;90.70;;;;;;5033928;28;20038;-51
2022/04/18 02:24:00;;;;;;;2.95;1.90;;;7.20;91.00;;;;;;5035867;28;20029;-50
2022/04/18 02:26:26;;;;;;;3.92;2.78;;;7.10;91.00;;;;;;5035564;28;20025;-50
2022/04/18 02:28:52;;;;;;;4.95;2.40;;;7.20;91.10;;;;;;5035850;28;20112;-51
2022/04/18 02:31:17;;;;;;;3.30;2.20;;;7.20;90.80;;;;;;5035758;28;20477;-50
2022/04/18 02:33:43;;;;;;;2.72;2.17;;;7.20;90.90;;;;;;5033518;28;20079;-53
2022/04/18 02:36:09;;;;;;;7.32;2.40;;;7.20;90.80;;;;;;5033911;28;20037;-50
2022/04/18 02:38:34;;;;;;;5.15;2.25;;;7.20;90.80;;;;;;5035630;28;20029;-52
2022/04/18 02:41:00;;;;;;;4.22;2.28;;;7.20;90.80;;;;;;5035648;28;20065;-50
2022/04/18 02:43:26;;;;;;;6.28;2.40;;;7.20;91.00;;;;;;5035490;28;20033;-51
2022/04/18 02:45:52;;;;;;;4.45;3.53;;;7.20;91.10;;;;;;5035368;28;20029;-51
2022/04/18 02:48:18;;;;;;;88.63;33.22;;;7.10;91.20;;;;;;5034707;28;20385;-50
2022/04/18 02:50:43;;;;;;;380.30;151.05;;;7.10;91.50;;;;;;5035260;28;20029;-53
2022/04/18 02:53:09;;;;;;;417.70;177.40;;;7.20;91.30;;;;;;5050351;28;20119;-53
2022/04/18 02:55:35;;;;;;;390.75;158.00;;;7.20;91.40;;;;;;5033564;28;20092;-53
2022/04/18 02:58:01;;;;;;;269.55;101.55;;;7.20;91.60;;;;;;5016534;28;20385;-53
2022/04/18 03:00:27;;;;;;;140.27;56.85;;;7.10;91.50;;;;;;5035345;28;20033;-51
2022/04/18 03:02:52;;;;;;;106.07;43.58;;;7.10;91.50;;;;;;5033524;28;20037;-52
2022/04/18 03:05:18;;;;;;;65.22;26.02;;;7.00;91.60;;;;;;5050110;28;20537;-51
2022/04/18 03:07:44;;;;;;;69.70;29.98;;;7.00;91.80;;;;;;5033301;28;20061;-52
2022/04/18 03:10:10;;;;;;;240.07;93.57;;;6.90;91.70;;;;;;5034668;28;20112;-53
2022/04/18 03:12:36;;;;;;;300.58;113.18;;;6.80;91.90;;;;;;5035375;28;20120;-50
2022/04/18 03:15:02;;;;;;;236.40;89.72;;;6.80;92.00;;;;;;5035260;28;20029;-53
2022/04/18 03:17:28;;;;;;;211.27;79.38;;;6.80;92.00;;;;;;5032689;28;20053;-52
2022/04/18 03:19:54;;;;;;;196.95;76.80;;;6.80;92.00;;;;;;5034856;28;20029;-50
2022/04/18 03:22:20;;;;;;;51.85;23.13;;;6.90;92.30;;;;;;5015983;28;20034;-51
2022/04/18 03:24:47;;;;;;;25.05;10.77;;;6.90;91.80;;;;;;5034979;28;20029;-52
2022/04/18 03:27:12;;;;;;;19.98;11.20;;;6.90;91.70;;;;;;5035052;28;20029;-51
2022/04/18 03:29:38;;;;;;;25.15;11.32;;;6.80;91.80;;;;;;5034784;28;20394;-53
2022/04/18 03:32:05;;;;;;;18.67;8.45;;;6.80;91.90;;;;;;5034646;28;20051;-53
2022/04/18 03:34:31;;;;;;;20.02;10.02;;;6.80;91.90;;;;;;5032654;28;20061;-50
2022/04/18 03:39:50;;;;;;;13.23;6.40;;;6.90;92.00;;;;;;5033312;28;20105;-52
2022/04/18 03:42:18;;;;;;;9.52;5.57;;;6.90;91.90;;;;;;5032951;28;20091;-52
2022/04/18 03:44:46;;;;;;;13.35;6.03;;;6.90;91.80;;;;;;5033307;28;20108;-52
2022/04/18 03:47:15;;;;;;;8.63;4.43;;;6.90;91.80;;;;;;5034589;28;20105;-52
2022/04/18 03:49:41;;;;;;;6.55;4.35;;;6.90;91.90;;;;;;5034240;28;20076;-51
2022/04/18 03:52:08;;;;;;;6.50;3.40;;;6.80;92.00;;;;;;5033951;28;20033;-50
2022/04/18 03:54:34;;;;;;;5.53;3.67;;;6.80;92.10;;;;;;5034358;28;20025;-52
2022/04/18 03:57:01;;;;;;;7.05;3.92;;;6.70;92.00;;;;;;5033964;28;20018;-53
2022/04/18 03:59:28;;;;;;;6.75;4.35;;;6.70;92.10;;;;;;5034080;28;20029;-50
2022/04/18 04:01:53;;;;;;;7.70;4.32;;;6.70;92.20;;;;;;5033994;28;20029;-50
2022/04/18 04:04:19;;;;;;;6.32;4.50;;;6.60;92.30;;;;;;5032053;28;20038;-50
2022/04/18 04:06:45;;;;;;;7.97;5.00;;;6.60;92.40;;;;;;5034353;28;20056;-50
2022/04/18 04:09:11;;;;;;;5.47;4.25;;;6.50;92.40;;;;;;5015521;28;20080;-51
2022/04/18 04:11:37;;;;;;;6.53;4.43;;;6.60;92.40;;;;;;5034267;28;20504;-54
2022/04/18 04:14:03;;;;;;;8.70;4.40;;;6.60;92.40;;;;;;5033873;28;20167;-50
2022/04/18 04:16:29;;;;;;;7.97;5.50;;;6.60;92.40;;;;;;5032351;28;20116;-51
2022/04/18 04:18:55;;;;;;;6.60;4.53;;;6.70;92.50;;;;;;5035415;28;20096;-52
2022/04/18 04:21:20;;;;;;;8.30;5.55;;;6.60;92.60;;;;;;5035827;28;20017;-50
2022/04/18 04:23:46;;;;;;;16.08;9.65;;;6.50;92.70;;;;;;5035806;28;20048;-51
2022/04/18 04:26:12;;;;;;;42.75;20.23;;;6.50;93.00;;;;;;5031744;28;20038;-53
2022/04/18 04:28:39;;;;;;;45.28;21.95;;;;;;;;;;5050514;28;20033;-50
2022/04/18 04:31:05;;;;;;;38.53;16.85;;;6.50;97.30;;;;;;5037330;28;20064;-51
2022/04/18 04:33:31;;;;;;;19.55;10.15;;;;;;;;;;5029672;28;20042;-53
2022/04/18 04:35:58;;;;;;;17.27;8.38;;;6.30;99.90;;;;;;5016273;28;20108;-52
2022/04/18 04:38:25;;;;;;;8.80;4.75;;;5.90;94.20;;;;;;5024295;28;20030;-48
2022/04/18 04:40:50;;;;;;;5.30;4.00;;;5.80;99.90;;;;;;5028772;28;20105;-52
2022/04/18 04:43:16;;;;;;;6.32;3.85;;;5.60;95.00;;;;;;5023694;28;20139;-51
2022/04/18 04:45:42;;;;;;;6.88;3.67;;;5.30;95.70;;;;;;5017982;28;20034;-50
2022/04/18 04:48:08;;;;;;;6.68;3.97;;;5.40;96.00;;;;;;5025550;28;20044;-50
2022/04/18 04:50:35;;;;;;;8.90;4.22;;;5.70;95.60;;;;;;5013979;28;20088;-51
2022/04/18 04:53:01;;;;;;;14.68;7.18;;;5.80;95.60;;;;;;5013162;28;20470;-49
2022/04/18 04:55:27;;;;;;;19.63;8.75;;;6.00;95.50;;;;;;5026863;28;20086;-51
2022/04/18 04:57:53;;;;;;;14.50;8.52;;;6.10;95.20;;;;;;5025450;28;20486;-49
2022/04/18 05:00:19;;;;;;;13.63;6.68;;;6.00;95.30;;;;;;5014975;28;20037;-51
2022/04/18 05:02:45;;;;;;;6.55;5.07;;;6.20;95.20;;;;;;5023650;28;20539;-52
2022/04/18 05:05:11;;;;;;;6.38;4.18;;;6.40;95.40;;;;;;5025423;28;20041;-52
2022/04/18 05:07:37;;;;;;;9.02;4.05;;;6.50;95.50;;;;;;5033716;28;20116;-50
2022/04/18 05:10:04;;;;;;;7.88;3.72;;;6.40;95.30;;;;;;5029631;28;20429;-50
2022/04/18 05:12:31;;;;;;;7.78;3.55;;;6.60;95.20;;;;;;5019219;28;20042;-53
2022/04/18 05:15:06;;;;;;;5.60;3.22;;;6.60;95.30;;;;;;5035847;28;20385;-50
2022/04/18 05:17:32;;;;;;;6.97;4.20;;;6.20;95.50;;;;;;5051403;28;20045;-51
2022/04/18 05:19:58;;;;;;;4.95;3.08;;;6.10;95.90;;;;;;5034408;28;20039;-49
2022/04/18 05:22:24;;;;;;;6.90;3.92;;;6.10;96.00;;;;;;5036794;28;20084;-52
2022/04/18 05:24:51;;;;;;;8.23;5.10;;;6.10;96.30;;;;;;5036927;28;20350;-51
2022/04/18 05:27:17;;;;;;;11.80;6.80;;;6.20;96.50;;;;;;5036732;28;20030;-52
2022/04/18 05:29:44;;;;;;;11.00;5.30;;;6.10;96.50;;;;;;5018169;28;20041;-53
2022/04/18 05:32:11;;;;;;;5.50;3.22;;;6.20;96.80;;;;;;5034162;28;20057;-49
2022/04/18 05:34:36;;;;;;;6.60;3.42;;;6.20;96.90;;;;;;5024818;28;20077;-55
2022/04/18 05:37:02;;;;;;;7.88;4.50;;;6.20;96.90;;;;;;5030169;28;20077;-51
2022/04/18 05:39:28;;;;;;;5.13;3.35;;;6.20;97.10;;;;;;4998922;28;20046;-51
2022/04/18 05:41:56;;;;;;;6.93;4.00;;;6.20;97.00;;;;;;5029171;28;20075;-52
2022/04/18 05:44:22;;;;;;;8.32;4.93;;;6.20;97.50;;;;;;5015932;28;20536;-52
2022/04/18 05:46:49;;;;;;;8.73;3.78;;;6.20;97.70;;;;;;5034778;28;20041;-53
2022/04/18 05:49:15;;;;;;;7.90;3.72;;;6.40;97.20;;;;;;5018388;28;20044;-51
2022/04/18 05:51:40;;;;;;;14.45;8.45;;;6.30;97.30;;;;;;5034953;28;20525;-52
2022/04/18 05:54:06;;;;;;;5.53;3.90;;;6.50;97.40;;;;;;5035529;28;20056;-51
2022/04/18 05:56:32;;;;;;;5.35;3.88;;;6.70;97.10;;;;;;5034265;28;20040;-50
2022/04/18 05:58:59;;;;;;;7.90;3.40;;;6.80;96.90;;;;;;5034659;28;20112;-51
2022/04/18 06:01:25;;;;;;;6.20;3.15;;;6.90;97.20;;;;;;5034689;28;20033;-51
2022/04/18 06:03:51;;;;;;;4.80;3.53;;;7.00;96.50;;;;;;5035951;28;20040;-52
2022/04/18 06:06:17;;;;;;;9.15;4.95;;;7.20;96.70;;;;;;5036255;28;20401;-50
2022/04/18 06:08:42;;;;;;;4.40;3.42;;;7.10;97.10;;;;;;5034417;28;20048;-51
2022/04/18 06:11:08;;;;;;;5.97;3.55;;;6.90;97.30;;;;;;5036538;28;20041;-51
2022/04/18 06:13:34;;;;;;;5.63;4.72;;;7.20;97.00;;;;;;5036577;28;20025;-51
2022/04/18 06:16:00;;;;;;;5.93;3.35;;;7.30;97.10;;;;;;5034832;28;20033;-52
2022/04/18 06:18:27;;;;;;;11.20;6.00;;;7.20;96.80;;;;;;5036545;28;20389;-52
2022/04/18 06:20:53;;;;;;;7.28;3.40;;;7.20;97.10;;;;;;5034497;28;20037;-51
2022/04/18 06:23:19;;;;;;;6.07;4.25;;;7.20;96.90;;;;;;5034881;28;20029;-50
2022/04/18 06:25:45;;;;;;;6.82;3.28;;;7.30;97.50;;;;;;5036366;28;20109;-52
2022/04/18 06:28:12;;;;;;;4.85;3.38;;;7.40;97.10;;;;;;5036230;28;20084;-51
2022/04/18 06:30:38;;;;;;;6.05;3.60;;;;;;;;;;5034413;28;20060;-52
2022/04/18 06:33:05;;;;;;;7.72;4.15;;;7.80;99.90;;;;;;5035772;28;20028;-49
2022/04/18 06:35:30;;;;;;;5.50;3.42;;;7.70;99.90;;;;;;5035733;28;20025;-52
2022/04/18 06:37:56;;;;;;;5.85;3.90;;;7.80;97.60;;;;;;5032729;28;20116;-51
2022/04/18 06:40:22;;;;;;;10.00;4.22;;;7.80;97.70;;;;;;5029406;28;20049;-50
2022/04/18 06:42:49;;;;;;;12.00;7.05;;;7.90;97.60;;;;;;5040805;28;20080;-50
2022/04/18 06:45:15;;;;;;;4.38;3.30;;;8.20;97.20;;;;;;5032872;28;20477;-50
2022/04/18 06:47:40;;;;;;;3.95;2.28;;;8.00;97.10;;;;;;5030980;28;20040;-50
2022/04/18 06:50:11;;;;;;;5.32;3.78;;;7.80;97.10;;;;;;5016809;28;20040;-52
2022/04/18 06:52:41;;;;;;;7.03;4.93;;;8.00;97.70;;;;;;5032644;28;20034;-52
2022/04/18 06:55:09;;;;;;;4.72;3.15;;;8.30;99.90;;;;;;5032097;28;20040;-52
2022/04/18 06:57:35;;;;;;;4.72;3.08;;;8.30;97.60;;;;;;5036046;28;20037;-50
2022/04/18 07:00:04;;;;;;;3.63;2.50;;;8.30;96.20;;;;;;5030638;28;20032;-51
2022/04/18 07:02:30;;;;;;;4.82;2.65;;;8.20;96.70;;;;;;5033328;28;20469;-51
2022/04/18 07:04:56;;;;;;;10.45;4.30;;;8.30;95.70;;;;;;5028761;28;20075;-50
2022/04/18 07:07:22;;;;;;;4.70;2.80;;;;;;;;;;5034905;28;20021;-52
2022/04/18 07:09:48;;;;;;;6.55;3.60;;;8.80;99.90;;;;;;5034809;28;20021;-50
2022/04/18 07:12:13;;;;;;;4.65;3.50;;;8.80;99.90;;;;;;5031784;28;20444;-50
2022/04/18 07:14:39;;;;;;;3.03;2.28;;;9.00;95.60;;;;;;5034782;28;20026;-52
2022/04/18 07:17:06;;;;;;;8.57;3.88;;;8.90;95.60;;;;;;5025527;28;20030;-50
2022/04/18 07:19:33;;;;;;;7.88;3.28;;;9.30;99.90;;;;;;5030223;28;20053;-52
2022/04/18 07:21:59;;;;;;;4.97;2.70;;;9.40;99.90;;;;;;5026493;28;20068;-51
2022/04/18 07:24:25;;;;;;;8.93;3.60;;;9.20;99.90;;;;;;5044173;28;20060;-52
2022/04/18 07:26:51;;;;;;;4.38;3.15;;;9.50;99.90;;;;;;5024896;28;20041;-51
2022/04/18 07:29:17;;;;;;;7.03;3.70;;;;;;;;;;5032513;28;20432;-51
2022/04/18 07:31:44;;;;;;;3.67;2.67;;;;;;;;;;5023202;28;20041;-51
2022/04/18 07:34:10;;;;;;;4.15;3.10;;;;;;;;;;5009270;28;20037;-52
2022/04/18 07:36:36;;;;;;;7.28;3.85;;;;;;;;;;5026712;28;20033;-52
2022/04/18 07:39:03;;;;;;;6.10;3.33;;;;;;;;;;5020442;28;20061;-53
2022/04/18 07:41:30;;;;;;;4.90;3.58;;;;;;;;;;5022143;28;20033;-51
2022/04/18 07:43:57;;;;;;;3.95;1.90;;;;;;;;;;5025672;28;20053;-52
2022/04/18 07:46:23;;;;;;;6.50;3.65;;;;;;;;;;5026787;28;20104;-52
2022/04/18 07:48:51;;;;;;;4.85;3.47;;;;;;;;;;5029554;28;20053;-52
2022/04/18 07:51:36;;;;;;;4.35;2.92;;;10.70;93.90;;;;;;5043047;28;20493;-53
2022/04/18 07:54:06;;;;;;;4.13;3.58;;;10.70;93.50;;;;;;5023705;28;20033;-53
2022/04/18 07:56:33;;;;;;;5.75;3.30;;;10.80;93.00;;;;;;5051742;28;20513;-53
2022/04/18 07:58:59;;;;;;;5.32;3.15;;;10.90;93.30;;;;;;5037186;28;20129;-53
2022/04/18 08:01:25;;;;;;;7.43;3.78;;;11.00;93.20;;;;;;5033773;28;20116;-51
2022/04/18 08:03:51;;;;;;;4.95;3.67;;;11.10;93.10;;;;;;5038641;28;20031;-52
2022/04/18 08:06:17;;;;;;;6.15;3.28;;;;;;;;;;5048825;28;20044;-52
2022/04/18 08:08:43;;;;;;;4.25;3.10;;;11.40;92.60;;;;;;5042078;28;20033;-51
2022/04/18 08:11:15;;;;;;;7.18;3.58;;;;;;;;;;5041275;28;20037;-52
2022/04/18 08:13:42;;;;;;;4.22;3.10;;;11.90;92.70;;;;;;5037132;28;20513;-52
2022/04/18 08:16:08;;;;;;;4.30;3.35;;;11.90;91.80;;;;;;5020150;28;20535;-52
2022/04/18 08:18:36;;;;;;;4.28;3.35;;;;;;;;;;5004036;28;20061;-52
2022/04/18 08:21:03;;;;;;;5.82;2.78;;;12.30;91.30;;;;;;5047632;28;20068;-52
2022/04/18 08:23:30;;;;;;;3.67;3.03;;;12.30;91.50;;;;;;5025450;28;20052;-51
2022/04/18 08:25:56;;;;;;;4.25;3.08;;;12.30;90.90;;;;;;5024605;28;20080;-53
2022/04/18 08:28:22;;;;;;;4.78;3.83;;;12.10;90.50;;;;;;5025046;28;20466;-53
2022/04/18 08:30:48;;;;;;;6.22;3.47;;;12.50;90.80;;;;;;5024691;28;20045;-54
2022/04/18 08:33:13;;;;;;;4.75;3.20;;;12.90;90.40;;;;;;5022599;28;20029;-52
2022/04/18 08:35:39;;;;;;;7.50;4.35;;;13.00;89.60;;;;;;5027250;28;20496;-53
2022/04/18 08:38:05;;;;;;;6.75;3.17;;;13.10;89.20;;;;;;5024942;28;20036;-52
2022/04/18 08:40:33;;;;;;;6.10;3.88;;;13.10;90.00;;;;;;5026528;28;20036;-52
2022/04/18 08:42:59;;;;;;;5.57;4.18;;;;;;;;;;5025723;28;20040;-54
2022/04/18 08:45:27;;;;;;;5.03;3.38;;;;;;;;;;5025874;28;20056;-53
2022/04/18 08:53:26;;;;;;;5.30;3.47;;;13.80;87.30;;;;;;5013742;28;20040;-53
2022/04/18 08:55:53;;;;;;;5.43;3.63;;;14.20;87.30;;;;;;5024331;28;20112;-54
2022/04/18 08:58:19;;;;;;;5.00;3.80;;;;;;;;;;5017784;28;20026;-53
2022/04/18 09:00:45;;;;;;;7.80;3.85;;;15.00;92.30;;;;;;5031149;28;20558;-53
2022/04/18 09:03:10;;;;;;;6.55;4.05;;;14.80;87.90;;;;;;5018583;28;20037;-54
2022/04/18 09:05:37;;;;;;;4.75;3.67;;;;;;;;;;5037057;28;20030;-54
2022/04/18 09:08:05;;;;;;;8.90;3.92;;;;;;;;;;5022541;28;20041;-53
2022/04/18 09:10:31;;;;;;;7.90;4.10;;;15.10;93.00;;;;;;5028188;28;20036;-52
2022/04/18 09:13:10;;;;;;;7.40;4.60;;;14.60;84.80;;;;;;5026702;28;20438;-54
2022/04/18 09:15:39;;;;;;;7.53;3.70;;;15.00;85.20;;;;;;5030350;28;20491;-53
2022/04/18 09:18:19;;;;;;;5.40;3.45;;;15.40;84.40;;;;;;5026687;28;20049;-52
2022/04/18 09:20:54;;;;;;;5.20;3.40;;;15.60;81.90;;;;;;5022550;28;20037;-53
2022/04/18 09:23:27;;;;;;;8.82;4.28;;;15.70;84.00;;;;;;5026091;28;20045;-53
2022/04/18 09:25:53;;;;;;;5.30;3.72;;;;;;;;;;5021242;28;20501;-54
2022/04/18 09:28:23;;;;;;;6.43;3.85;;;;;;;;;;5015949;28;20034;-52
2022/04/18 09:30:58;;;;;;;5.32;3.70;;;16.50;79.20;;;;;;5017467;28;20037;-53
2022/04/18 09:33:28;;;;;;;4.70;3.47;;;16.40;79.10;;;;;;5015885;28;20029;-54
2022/04/18 09:36:05;;;;;;;9.77;4.32;;;16.40;79.80;;;;;;5024628;28;20021;-53
2022/04/18 09:38:31;;;;;;;7.03;4.50;;;;;;;;;;5019709;28;20025;-52
2022/04/18 09:40:57;;;;;;;4.47;3.20;;;;;;;;;;5028132;28;20083;-52
2022/04/18 09:43:23;;;;;;;9.93;5.07;;;;;;;;;;5017397;28;20065;-55
2022/04/18 09:45:50;;;;;;;6.88;4.63;;;18.00;74.30;;;;;;5019703;28;20026;-53
2022/04/18 09:48:17;;;;;;;3.88;2.83;;;;;;;;;;5025662;28;20604;-54
2022/04/18 09:51:01;;;;;;;5.55;3.83;;;18.50;76.80;;;;;;5025957;28;20045;-54
2022/04/18 09:53:26;;;;;;;4.03;3.00;;;18.40;71.00;;;;;;5017933;28;20042;-54
2022/04/18 09:55:53;;;;;;;3.35;2.60;;;;;;;;;;5027907;28;20046;-55
2022/04/18 09:58:20;;;;;;;3.83;2.08;;;17.40;98.40;;;;;;5026865;28;20052;-53
2022/04/18 10:00:46;;;;;;;9.93;8.00;;;17.10;70.30;;;;;;5026549;28;20513;-55
2022/04/18 10:03:12;;;;;;;10.07;7.40;;;;;;;;;;5030085;28;20124;-53
2022/04/18 10:05:40;;;;;;;7.57;4.05;;;;;;;;;;5031217;28;20440;-53
2022/04/18 10:08:06;;;;;;;4.82;2.95;;;;;;;;;;5027187;28;20053;-55
2022/04/18 10:10:33;;;;;;;3.72;2.70;;;;;;;;;;5026310;28;20148;-55
2022/04/18 10:12:59;;;;;;;4.50;2.40;;;;;;;;;;5023574;28;20040;-52
2022/04/18 10:15:27;;;;;;;14.00;4.22;;;;;;;;;;5042273;28;20041;-54
2022/04/18 10:17:53;;;;;;;5.68;2.55;;;14.40;93.70;;;;;;5025118;28;20038;-54
2022/04/18 10:20:25;;;;;;;7.38;3.67;;;;;;;;;;5025679;28;20568;-54
2022/04/18 10:23:09;;;;;;;6.00;2.72;;;;;;;;;;5023451;28;20045;-52
2022/04/18 10:25:59;;;;;;;4.38;1.52;;;;;;;;;;5023422;28;20073;-52
2022/04/18 10:28:27;;;;;;;5.20;2.38;;;;;;;;;;4972929;28;20073;-51
2022/04/18 10:30:57;;;;;;;3.65;2.80;;;;;;;;;;4991280;28;20130;-53
2022/04/18 10:33:24;;;;;;;3.58;2.63;;;;;;;;;;4992538;28;20042;-54
2022/04/18 10:35:54;;;;;;;3.15;2.08;;;15.10;85.40;;;;;;4990125;28;20106;-53
2022/04/18 10:38:25;;;;;;;5.35;3.03;;;15.40;88.00;;;;;;4990103;28;20177;-54
2022/04/18 10:41:14;;;;;;;4.63;2.97;;;15.60;89.30;;;;;;4990807;28;20034;-54
2022/04/18 10:43:58;;;;;;;8.77;4.88;;;15.80;86.40;;;;;;4992789;28;20426;-53
2022/04/18 10:46:24;;;;;;;5.57;3.28;;;;;;;;;;4986368;28;20049;-53
2022/04/18 10:48:57;;;;;;;5.10;2.53;;;;;;;;;;4992992;28;20554;-52
2022/04/18 10:51:51;;;;;;;2.60;2.00;;;;;;;;;;4991045;28;20038;-54
2022/04/18 10:54:18;;;;;;;5.43;4.07;;;;;;;;;;4990922;28;20457;-54
2022/04/18 10:56:50;;;;;;;3.38;2.78;;;;;;;;;;4988942;28;20537;-54
2022/04/18 10:59:20;;;;;;;10.48;5.13;;;15.20;88.50;;;;;;4987847;28;20035;-51
2022/04/18 11:01:48;;;;;;;8.77;6.00;;;15.10;83.50;;;;;;4992681;28;20125;-52
2022/04/18 11:04:15;;;;;;;14.57;8.38;;;14.90;85.60;;;;;;4993076;28;20116;-54
2022/04/18 11:06:43;;;;;;;24.60;13.50;;;14.70;85.80;;;;;;5046685;28;20141;-53
2022/04/18 11:09:13;;;;;;;5.78;3.67;;;14.70;87.30;;;;;;5027426;28;20080;-51
2022/04/18 11:11:47;;;;;;;4.32;3.33;;;14.70;85.60;;;;;;5047978;28;20091;-52
2022/04/18 11:14:18;;;;;;;5.47;2.90;;;14.80;86.10;;;;;;5049579;28;20033;-52
2022/04/18 11:16:44;;;;;;;37.95;23.42;;;14.70;84.00;;;;;;5018042;28;20151;-51
2022/04/18 11:19:19;;;;;;;8.80;5.85;;;14.90;85.20;;;;;;5048421;28;20052;-52
2022/04/18 11:22:04;;;;;;;12.10;7.30;;;15.00;84.80;;;;;;5045891;28;20048;-52
2022/04/18 11:24:40;;;;;;;8.80;5.75;;;15.50;87.50;;;;;;5047657;28;20112;-54
2022/04/18 11:27:14;;;;;;;5.15;3.78;;;15.50;87.00;;;;;;5048661;28;20037;-53
2022/04/18 11:29:42;;;;;;;6.72;3.10;;;15.70;86.60;;;;;;5052089;28;20033;-53
2022/04/18 11:32:09;;;;;;;28.63;25.20;;;16.10;85.50;;;;;;5043093;28;20138;-53
2022/04/18 11:34:36;;;;;;;25.13;13.20;;;16.30;84.70;;;;;;5029839;28;20034;-53
2022/04/18 11:37:04;;;;;;;4.55;3.17;;;16.40;90.30;;;;;;5045364;28;20050;-58
2022/04/18 11:39:46;;;;;;;5.07;3.50;;;;;;;;;;5032402;28;20401;-53
2022/04/18 11:42:16;;;;;;;3.35;2.65;;;;;;;;;;5043400;28;20033;-54
2022/04/18 11:44:42;;;;;;;3.33;2.13;;;;;;;;;;5028238;28;20830;-60
2022/04/18 11:47:09;;;;;;;4.45;3.45;;;;;;;;;;5030768;28;20389;-59
2022/04/18 11:49:36;;;;;;;9.65;4.95;;;16.80;78.50;;;;;;5027359;28;20068;-59
2022/04/18 11:52:02;;;;;;;15.45;8.32;;;;;;;;;;5045223;28;20058;-56
2022/04/18 11:54:29;;;;;;;7.53;4.72;;;;;;;;;;5027044;28;20084;-58
2022/04/18 11:57:01;;;;;;;6.50;3.47;;;;;;;;;;5032193;28;20042;-66
2022/04/18 11:59:28;;;;;;;11.35;2.58;;;;;;;;;;5030209;28;20113;-57
2022/04/18 12:07:26;;;;;;;5.32;2.15;;;18.60;79.50;;;;;;5026242;28;20504;-57
2022/04/18 12:09:52;;;;;;;3.00;2.08;;;17.70;77.60;;;;;;5033372;28;20029;-62
2022/04/18 12:12:31;;;;;;;4.40;2.83;;;16.60;91.00;;;;;;5028418;28;20041;-57
2022/04/18 12:15:05;;;;;;;4.22;2.30;;;16.20;79.40;;;;;;5022809;28;20030;-62
2022/04/18 12:17:34;;;;;;;4.20;3.20;;;15.90;81.30;;;;;;5033343;28;20480;-56
2022/04/18 12:20:18;;;;;;;4.38;2.00;;;16.40;80.60;;;;;;5024061;28;20045;-56
2022/04/18 12:22:53;;;;;;;6.28;5.18;;;16.30;80.50;;;;;;5030153;28;20029;-61
2022/04/18 12:25:23;;;;;;;5.95;3.10;;;16.50;82.30;;;;;;5025945;28;20531;-57
2022/04/18 12:27:50;;;;;;;11.05;5.60;;;15.40;78.50;;;;;;5030175;28;20047;-65
2022/04/18 12:30:17;;;;;;;4.85;2.58;;;;;;;;;;5029683;28;20044;-63
2022/04/18 12:32:47;;;;;;;3.75;2.13;;;;;;;;;;5031162;28;20030;-58
2022/04/18 12:35:14;;;;;;;5.25;3.10;;;15.30;98.40;;;;;;5030431;28;20091;-61
2022/04/18 12:37:47;;;;;;;4.70;2.75;;;15.70;71.20;;;;;;5030108;28;20102;-58
2022/04/18 12:40:14;;;;;;;4.45;2.60;;;16.10;71.30;;;;;;5024824;28;20129;-62
2022/04/18 12:42:47;;;;;;;5.05;2.45;;;16.40;69.50;;;;;;5028097;28;20026;-55
2022/04/18 12:45:13;;;;;;;2.72;1.60;;;16.40;70.70;;;;;;5027931;28;20025;-56
2022/04/18 12:47:40;;;;;;;4.40;2.35;;;16.30;66.90;;;;;;5029124;28;20029;-57
2022/04/18 12:50:11;;;;;;;5.28;3.90;;;17.10;88.40;;;;;;5026549;28;20485;-62
2022/04/18 12:52:51;;;;;;;3.53;1.80;;;17.30;92.00;;;;;;5029494;28;20042;-56
2022/04/18 12:55:26;;;;;;;4.78;2.75;;;;;;;;;;5024921;28;20490;-55
2022/04/18 12:57:53;;;;;;;5.72;1.90;;;17.30;78.10;;;;;;5016605;28;20025;-60
2022/04/18 13:00:19;;;;;;;4.55;1.30;;;;;;;;;;5016518;28;20028;-54
2022/04/18 13:03:06;;;;;;;10.20;2.40;;;15.60;69.90;;;;;;5016153;28;20421;-56
2022/04/18 13:05:33;;;;;;;3.92;1.90;;;;;;;;;;5012803;28;20106;-53
2022/04/18 13:08:06;;;;;;;4.00;1.73;;;;;;;;;;5031751;28;20486;-59
2022/04/18 13:10:33;;;;;;;5.60;3.30;;;;;;;;;;5032847;28;20367;-53
2022/04/18 13:13:00;;;;;;;6.40;2.90;;;;;;;;;;5016862;28;20038;-53
2022/04/18 13:15:27;;;;;;;2.28;1.58;;;;;;;;;;5016973;28;20040;-51
2022/04/18 13:18:12;;;;;;;5.05;2.75;;;;;;;;;;5018659;28;20125;-53
2022/04/18 13:20:39;;;;;;;2.50;1.45;;;;;;;;;;5017506;28;20042;-51
2022/04/18 13:23:06;;;;;;;2.65;1.58;;;;;;;;;;5026104;28;20030;-54
2022/04/18 13:25:33;;;;;;;6.25;2.00;;;;;;;;;;5023673;28;20060;-54
2022/04/18 13:28:06;;;;;;;3.63;2.60;;;13.90;74.60;;;;;;5028127;28;20038;-53
2022/04/18 13:30:32;;;;;;;7.25;3.85;;;14.00;76.50;;;;;;5029805;28;20076;-53
2022/04/18 13:32:58;;;;;;;3.10;2.15;;;14.40;76.90;;;;;;5032074;28;20450;-52
2022/04/18 13:35:24;;;;;;;5.68;3.05;;;14.60;75.70;;;;;;5029872;28;20128;-53